sensor_id;sensor_type;location;lat;lon;timestamp;P1;durP1;ratioP1;P2;durP2;ratioP2
151;SDS011;68;48.792;9.164;2023-11-19T00:00:58;33.90;;;19.83;;
151;SDS011;68;48.792;9.164;2023-11-19T00:03:25;40.47;;;18.73;;
151;SDS011;68;48.792;9.164;2023-11-19T00:05:53;35.30;;;20.98;;
151;SDS011;68;48.792;9.164;2023-11-19T00:08:20;32.63;;;18.95;;
151;SDS011;68;48.792;9.164;2023-11-19T00:10:49;30.90;;;19.30;;
151;SDS011;68;48.792;9.164;2023-11-19T00:13:17;33.80;;;20.23;;
151;SDS011;68;48.792;9.164;2023-11-19T00:15:44;32.50;;;17.90;;
151;SDS011;68;48.792;9.164;2023-11-19T00:18:12;31.20;;;17.70;;
151;SDS011;68;48.792;9.164;2023-11-19T00:20:39;32.35;;;19.58;;
151;SDS011;68;48.792;9.164;2023-11-19T00:23:11;33.75;;;20.23;;
151;SDS011;68;48.792;9.164;2023-11-19T00:25:37;33.50;;;20.70;;
151;SDS011;68;48.792;9.164;2023-11-19T00:28:04;34.75;;;17.48;;
151;SDS011;68;48.792;9.164;2023-11-19T00:30:32;33.28;;;18.27;;
151;SDS011;68;48.792;9.164;2023-11-19T00:32:59;30.10;;;15.63;;
151;SDS011;68;48.792;9.164;2023-11-19T00:35:25;29.08;;;14.52;;
151;SDS011;68;48.792;9.164;2023-11-19T00:37:52;30.63;;;17.50;;
151;SDS011;68;48.792;9.164;2023-11-19T00:40:20;29.08;;;16.70;;
151;SDS011;68;48.792;9.164;2023-11-19T00:42:48;31.80;;;19.42;;
151;SDS011;68;48.792;9.164;2023-11-19T00:45:15;32.92;;;17.08;;
151;SDS011;68;48.792;9.164;2023-11-19T00:47:42;30.55;;;14.70;;
151;SDS011;68;48.792;9.164;2023-11-19T00:50:09;27.40;;;14.20;;
151;SDS011;68;48.792;9.164;2023-11-19T00:52:37;29.10;;;15.02;;
151;SDS011;68;48.792;9.164;2023-11-19T00:55:04;32.88;;;17.65;;
151;SDS011;68;48.792;9.164;2023-11-19T00:57:33;30.17;;;16.65;;
151;SDS011;68;48.792;9.164;2023-11-19T01:00:00;32.30;;;18.25;;
151;SDS011;68;48.792;9.164;2023-11-19T01:02:28;30.40;;;15.50;;
151;SDS011;68;48.792;9.164;2023-11-19T01:04:54;27.02;;;14.35;;
151;SDS011;68;48.792;9.164;2023-11-19T01:07:21;31.13;;;16.55;;
151;SDS011;68;48.792;9.164;2023-11-19T01:09:49;30.60;;;15.55;;
151;SDS011;68;48.792;9.164;2023-11-19T01:12:16;30.52;;;16.27;;
151;SDS011;68;48.792;9.164;2023-11-19T01:14:44;29.17;;;16.02;;
151;SDS011;68;48.792;9.164;2023-11-19T01:17:11;29.10;;;15.20;;
151;SDS011;68;48.792;9.164;2023-11-19T01:19:38;27.90;;;14.45;;
151;SDS011;68;48.792;9.164;2023-11-19T01:22:04;30.88;;;14.60;;
151;SDS011;68;48.792;9.164;2023-11-19T01:24:31;28.27;;;14.43;;
151;SDS011;68;48.792;9.164;2023-11-19T01:26:59;28.17;;;15.13;;
151;SDS011;68;48.792;9.164;2023-11-19T01:29:26;29.55;;;15.27;;
151;SDS011;68;48.792;9.164;2023-11-19T01:31:54;34.90;;;16.77;;
151;SDS011;68;48.792;9.164;2023-11-19T01:34:20;27.55;;;13.52;;
151;SDS011;68;48.792;9.164;2023-11-19T01:36:47;28.55;;;14.15;;
151;SDS011;68;48.792;9.164;2023-11-19T01:39:14;29.08;;;12.60;;
151;SDS011;68;48.792;9.164;2023-11-19T01:41:42;28.63;;;14.55;;
151;SDS011;68;48.792;9.164;2023-11-19T01:44:09;27.70;;;14.77;;
151;SDS011;68;48.792;9.164;2023-11-19T01:46:37;27.35;;;12.60;;
151;SDS011;68;48.792;9.164;2023-11-19T01:49:07;26.42;;;13.10;;
151;SDS011;68;48.792;9.164;2023-11-19T01:51:36;29.23;;;14.05;;
151;SDS011;68;48.792;9.164;2023-11-19T01:54:04;26.80;;;13.02;;
151;SDS011;68;48.792;9.164;2023-11-19T01:56:31;28.05;;;13.48;;
151;SDS011;68;48.792;9.164;2023-11-19T01:58:58;27.63;;;13.23;;
151;SDS011;68;48.792;9.164;2023-11-19T02:01:26;29.05;;;13.27;;
151;SDS011;68;48.792;9.164;2023-11-19T02:03:54;28.13;;;14.82;;
151;SDS011;68;48.792;9.164;2023-11-19T02:06:24;25.52;;;10.77;;
151;SDS011;68;48.792;9.164;2023-11-19T02:08:52;26.83;;;12.02;;
151;SDS011;68;48.792;9.164;2023-11-19T02:11:19;27.92;;;15.30;;
151;SDS011;68;48.792;9.164;2023-11-19T02:13:45;26.23;;;12.52;;
151;SDS011;68;48.792;9.164;2023-11-19T02:16:12;28.05;;;13.68;;
151;SDS011;68;48.792;9.164;2023-11-19T02:18:39;24.48;;;10.50;;
151;SDS011;68;48.792;9.164;2023-11-19T02:21:06;25.90;;;10.77;;
151;SDS011;68;48.792;9.164;2023-11-19T02:23:34;24.75;;;10.18;;
151;SDS011;68;48.792;9.164;2023-11-19T02:26:02;28.25;;;11.93;;
151;SDS011;68;48.792;9.164;2023-11-19T02:28:37;26.80;;;12.00;;
151;SDS011;68;48.792;9.164;2023-11-19T02:31:04;25.83;;;11.60;;
151;SDS011;68;48.792;9.164;2023-11-19T02:33:34;26.17;;;9.98;;
151;SDS011;68;48.792;9.164;2023-11-19T02:36:01;25.98;;;10.98;;
151;SDS011;68;48.792;9.164;2023-11-19T02:38:28;23.98;;;8.90;;
151;SDS011;68;48.792;9.164;2023-11-19T02:40:55;25.77;;;12.10;;
151;SDS011;68;48.792;9.164;2023-11-19T02:43:22;26.38;;;11.80;;
151;SDS011;68;48.792;9.164;2023-11-19T02:45:50;25.70;;;12.57;;
151;SDS011;68;48.792;9.164;2023-11-19T02:48:20;24.50;;;10.70;;
151;SDS011;68;48.792;9.164;2023-11-19T02:50:47;24.98;;;11.52;;
151;SDS011;68;48.792;9.164;2023-11-19T02:53:14;28.30;;;11.55;;
151;SDS011;68;48.792;9.164;2023-11-19T02:55:41;25.45;;;11.07;;
151;SDS011;68;48.792;9.164;2023-11-19T02:58:13;25.40;;;11.05;;
151;SDS011;68;48.792;9.164;2023-11-19T03:00:48;26.80;;;11.13;;
151;SDS011;68;48.792;9.164;2023-11-19T03:03:23;31.50;;;9.48;;
151;SDS011;68;48.792;9.164;2023-11-19T03:05:55;25.10;;;10.60;;
151;SDS011;68;48.792;9.164;2023-11-19T03:08:22;25.13;;;10.90;;
151;SDS011;68;48.792;9.164;2023-11-19T03:10:49;24.63;;;10.48;;
151;SDS011;68;48.792;9.164;2023-11-19T03:13:16;25.23;;;11.02;;
151;SDS011;68;48.792;9.164;2023-11-19T03:15:43;24.65;;;10.52;;
151;SDS011;68;48.792;9.164;2023-11-19T03:18:09;27.27;;;12.25;;
151;SDS011;68;48.792;9.164;2023-11-19T03:20:37;27.10;;;9.75;;
151;SDS011;68;48.792;9.164;2023-11-19T03:23:05;25.75;;;10.43;;
151;SDS011;68;48.792;9.164;2023-11-19T03:25:32;26.50;;;12.27;;
151;SDS011;68;48.792;9.164;2023-11-19T03:27:59;26.45;;;11.40;;
151;SDS011;68;48.792;9.164;2023-11-19T03:30:26;26.13;;;10.65;;
151;SDS011;68;48.792;9.164;2023-11-19T03:32:54;28.05;;;12.25;;
151;SDS011;68;48.792;9.164;2023-11-19T03:35:21;26.65;;;11.25;;
151;SDS011;68;48.792;9.164;2023-11-19T03:37:49;25.73;;;10.73;;
151;SDS011;68;48.792;9.164;2023-11-19T03:40:17;24.13;;;10.73;;
151;SDS011;68;48.792;9.164;2023-11-19T03:42:44;26.42;;;10.95;;
151;SDS011;68;48.792;9.164;2023-11-19T03:45:11;23.85;;;9.35;;
151;SDS011;68;48.792;9.164;2023-11-19T03:47:38;23.45;;;9.70;;
151;SDS011;68;48.792;9.164;2023-11-19T03:50:05;24.08;;;8.68;;
151;SDS011;68;48.792;9.164;2023-11-19T03:52:33;23.13;;;8.35;;
151;SDS011;68;48.792;9.164;2023-11-19T03:55:02;23.95;;;10.40;;
151;SDS011;68;48.792;9.164;2023-11-19T03:57:30;24.48;;;9.35;;
151;SDS011;68;48.792;9.164;2023-11-19T03:59:57;28.20;;;11.10;;
151;SDS011;68;48.792;9.164;2023-11-19T04:02:24;28.55;;;10.10;;
151;SDS011;68;48.792;9.164;2023-11-19T04:04:52;24.70;;;10.25;;
151;SDS011;68;48.792;9.164;2023-11-19T04:07:20;26.73;;;12.23;;
151;SDS011;68;48.792;9.164;2023-11-19T04:09:47;24.92;;;11.13;;
151;SDS011;68;48.792;9.164;2023-11-19T04:12:15;27.27;;;11.95;;
151;SDS011;68;48.792;9.164;2023-11-19T04:14:41;27.27;;;12.07;;
151;SDS011;68;48.792;9.164;2023-11-19T04:17:09;25.92;;;12.02;;
151;SDS011;68;48.792;9.164;2023-11-19T04:19:35;23.70;;;9.70;;
151;SDS011;68;48.792;9.164;2023-11-19T04:22:03;26.10;;;10.85;;
151;SDS011;68;48.792;9.164;2023-11-19T04:24:29;25.92;;;10.80;;
151;SDS011;68;48.792;9.164;2023-11-19T04:26:56;24.77;;;10.20;;
151;SDS011;68;48.792;9.164;2023-11-19T04:29:24;27.60;;;10.55;;
151;SDS011;68;48.792;9.164;2023-11-19T04:31:51;24.00;;;9.52;;
151;SDS011;68;48.792;9.164;2023-11-19T04:34:18;25.08;;;10.65;;
151;SDS011;68;48.792;9.164;2023-11-19T04:36:45;25.67;;;11.13;;
151;SDS011;68;48.792;9.164;2023-11-19T04:39:11;28.05;;;10.05;;
151;SDS011;68;48.792;9.164;2023-11-19T04:41:47;25.60;;;11.38;;
151;SDS011;68;48.792;9.164;2023-11-19T04:44:14;24.80;;;10.13;;
151;SDS011;68;48.792;9.164;2023-11-19T04:46:43;25.45;;;10.50;;
151;SDS011;68;48.792;9.164;2023-11-19T04:49:10;25.48;;;11.10;;
151;SDS011;68;48.792;9.164;2023-11-19T04:51:38;24.50;;;10.15;;
151;SDS011;68;48.792;9.164;2023-11-19T04:54:06;29.45;;;10.70;;
151;SDS011;68;48.792;9.164;2023-11-19T04:56:33;24.58;;;10.23;;
151;SDS011;68;48.792;9.164;2023-11-19T04:59:01;24.08;;;9.75;;
151;SDS011;68;48.792;9.164;2023-11-19T05:01:27;24.63;;;10.27;;
151;SDS011;68;48.792;9.164;2023-11-19T05:03:56;24.95;;;11.60;;
151;SDS011;68;48.792;9.164;2023-11-19T05:06:25;24.55;;;9.65;;
151;SDS011;68;48.792;9.164;2023-11-19T05:08:53;25.40;;;11.73;;
151;SDS011;68;48.792;9.164;2023-11-19T05:11:20;24.38;;;10.18;;
151;SDS011;68;48.792;9.164;2023-11-19T05:13:47;25.48;;;10.93;;
151;SDS011;68;48.792;9.164;2023-11-19T05:16:14;24.42;;;9.27;;
151;SDS011;68;48.792;9.164;2023-11-19T05:18:40;25.08;;;10.30;;
151;SDS011;68;48.792;9.164;2023-11-19T05:21:09;24.75;;;10.27;;
151;SDS011;68;48.792;9.164;2023-11-19T05:23:35;24.92;;;10.30;;
151;SDS011;68;48.792;9.164;2023-11-19T05:26:02;30.40;;;10.65;;
151;SDS011;68;48.792;9.164;2023-11-19T05:28:29;25.73;;;10.38;;
151;SDS011;68;48.792;9.164;2023-11-19T05:30:57;24.08;;;11.05;;
151;SDS011;68;48.792;9.164;2023-11-19T05:33:24;25.88;;;10.20;;
151;SDS011;68;48.792;9.164;2023-11-19T05:35:51;27.25;;;13.23;;
151;SDS011;68;48.792;9.164;2023-11-19T05:38:19;25.15;;;9.77;;
151;SDS011;68;48.792;9.164;2023-11-19T05:40:46;25.88;;;8.93;;
151;SDS011;68;48.792;9.164;2023-11-19T05:43:14;25.23;;;9.80;;
151;SDS011;68;48.792;9.164;2023-11-19T05:45:41;26.35;;;10.02;;
151;SDS011;68;48.792;9.164;2023-11-19T05:48:08;24.23;;;11.20;;
151;SDS011;68;48.792;9.164;2023-11-19T05:50:35;27.55;;;10.65;;
151;SDS011;68;48.792;9.164;2023-11-19T05:53:02;24.15;;;10.38;;
151;SDS011;68;48.792;9.164;2023-11-19T05:55:33;25.95;;;12.00;;
151;SDS011;68;48.792;9.164;2023-11-19T05:58:00;24.38;;;9.70;;
151;SDS011;68;48.792;9.164;2023-11-19T06:00:28;23.33;;;9.82;;
151;SDS011;68;48.792;9.164;2023-11-19T06:02:55;24.58;;;10.80;;
151;SDS011;68;48.792;9.164;2023-11-19T06:05:22;25.13;;;10.73;;
151;SDS011;68;48.792;9.164;2023-11-19T06:07:49;24.30;;;11.50;;
151;SDS011;68;48.792;9.164;2023-11-19T06:10:16;25.27;;;10.25;;
151;SDS011;68;48.792;9.164;2023-11-19T06:12:45;27.40;;;10.55;;
151;SDS011;68;48.792;9.164;2023-11-19T06:15:12;25.05;;;10.68;;
151;SDS011;68;48.792;9.164;2023-11-19T06:17:39;26.38;;;11.02;;
151;SDS011;68;48.792;9.164;2023-11-19T06:20:06;29.88;;;11.65;;
151;SDS011;68;48.792;9.164;2023-11-19T06:22:34;25.33;;;10.88;;
151;SDS011;68;48.792;9.164;2023-11-19T06:25:01;23.83;;;8.95;;
151;SDS011;68;48.792;9.164;2023-11-19T06:27:32;24.30;;;10.65;;
151;SDS011;68;48.792;9.164;2023-11-19T06:30:00;26.73;;;10.00;;
151;SDS011;68;48.792;9.164;2023-11-19T06:32:27;24.58;;;9.40;;
151;SDS011;68;48.792;9.164;2023-11-19T06:34:54;24.33;;;10.15;;
151;SDS011;68;48.792;9.164;2023-11-19T06:37:21;24.85;;;9.70;;
151;SDS011;68;48.792;9.164;2023-11-19T06:39:48;26.00;;;7.78;;
151;SDS011;68;48.792;9.164;2023-11-19T06:42:15;26.90;;;10.98;;
151;SDS011;68;48.792;9.164;2023-11-19T06:44:42;25.30;;;11.30;;
151;SDS011;68;48.792;9.164;2023-11-19T06:47:10;26.63;;;11.73;;
151;SDS011;68;48.792;9.164;2023-11-19T06:49:37;25.40;;;10.68;;
151;SDS011;68;48.792;9.164;2023-11-19T06:52:04;25.33;;;11.35;;
151;SDS011;68;48.792;9.164;2023-11-19T06:54:31;24.30;;;9.15;;
151;SDS011;68;48.792;9.164;2023-11-19T06:56:58;25.88;;;9.95;;
151;SDS011;68;48.792;9.164;2023-11-19T06:59:24;23.20;;;9.60;;
151;SDS011;68;48.792;9.164;2023-11-19T07:01:51;26.30;;;12.13;;
151;SDS011;68;48.792;9.164;2023-11-19T07:04:19;25.00;;;10.02;;
151;SDS011;68;48.792;9.164;2023-11-19T07:06:46;27.38;;;13.70;;
151;SDS011;68;48.792;9.164;2023-11-19T07:09:14;26.55;;;11.43;;
151;SDS011;68;48.792;9.164;2023-11-19T07:11:41;24.38;;;9.93;;
151;SDS011;68;48.792;9.164;2023-11-19T07:14:09;25.63;;;10.05;;
151;SDS011;68;48.792;9.164;2023-11-19T07:16:36;22.75;;;9.48;;
151;SDS011;68;48.792;9.164;2023-11-19T07:19:04;28.70;;;11.65;;
151;SDS011;68;48.792;9.164;2023-11-19T07:21:33;26.70;;;11.10;;
151;SDS011;68;48.792;9.164;2023-11-19T07:24:00;26.67;;;9.98;;
151;SDS011;68;48.792;9.164;2023-11-19T07:26:28;25.75;;;10.15;;
151;SDS011;68;48.792;9.164;2023-11-19T07:28:55;25.25;;;11.90;;
151;SDS011;68;48.792;9.164;2023-11-19T07:31:21;26.02;;;10.68;;
151;SDS011;68;48.792;9.164;2023-11-19T07:33:49;24.58;;;10.23;;
151;SDS011;68;48.792;9.164;2023-11-19T07:36:14;26.13;;;9.60;;
151;SDS011;68;48.792;9.164;2023-11-19T07:38:43;26.63;;;11.10;;
151;SDS011;68;48.792;9.164;2023-11-19T07:41:09;26.85;;;11.98;;
151;SDS011;68;48.792;9.164;2023-11-19T07:43:38;28.13;;;10.27;;
151;SDS011;68;48.792;9.164;2023-11-19T07:46:05;23.95;;;10.55;;
151;SDS011;68;48.792;9.164;2023-11-19T07:48:36;26.95;;;11.23;;
151;SDS011;68;48.792;9.164;2023-11-19T07:51:03;24.92;;;10.80;;
151;SDS011;68;48.792;9.164;2023-11-19T07:53:30;26.33;;;11.27;;
151;SDS011;68;48.792;9.164;2023-11-19T07:55:59;23.67;;;9.85;;
151;SDS011;68;48.792;9.164;2023-11-19T07:58:26;25.50;;;10.93;;
151;SDS011;68;48.792;9.164;2023-11-19T08:00:52;25.25;;;11.23;;
151;SDS011;68;48.792;9.164;2023-11-19T08:03:19;26.42;;;11.00;;
151;SDS011;68;48.792;9.164;2023-11-19T08:05:47;26.13;;;9.30;;
151;SDS011;68;48.792;9.164;2023-11-19T08:08:13;26.00;;;10.02;;
151;SDS011;68;48.792;9.164;2023-11-19T08:10:40;25.37;;;10.17;;
151;SDS011;68;48.792;9.164;2023-11-19T08:13:08;25.60;;;10.38;;
151;SDS011;68;48.792;9.164;2023-11-19T08:15:35;25.40;;;10.05;;
151;SDS011;68;48.792;9.164;2023-11-19T08:18:01;25.88;;;12.07;;
151;SDS011;68;48.792;9.164;2023-11-19T08:20:28;29.42;;;12.23;;
151;SDS011;68;48.792;9.164;2023-11-19T08:22:55;25.52;;;11.07;;
151;SDS011;68;48.792;9.164;2023-11-19T08:25:22;23.98;;;9.95;;
151;SDS011;68;48.792;9.164;2023-11-19T08:27:49;26.48;;;10.88;;
151;SDS011;68;48.792;9.164;2023-11-19T08:30:17;27.40;;;9.82;;
151;SDS011;68;48.792;9.164;2023-11-19T08:32:45;25.45;;;9.30;;
151;SDS011;68;48.792;9.164;2023-11-19T08:35:11;24.50;;;10.25;;
151;SDS011;68;48.792;9.164;2023-11-19T08:37:38;26.05;;;9.68;;
151;SDS011;68;48.792;9.164;2023-11-19T08:40:06;27.50;;;10.18;;
151;SDS011;68;48.792;9.164;2023-11-19T08:42:33;24.27;;;9.07;;
151;SDS011;68;48.792;9.164;2023-11-19T08:45:00;25.85;;;9.88;;
151;SDS011;68;48.792;9.164;2023-11-19T08:47:28;24.75;;;9.55;;
151;SDS011;68;48.792;9.164;2023-11-19T08:49:55;27.00;;;12.07;;
151;SDS011;68;48.792;9.164;2023-11-19T08:52:21;26.05;;;10.18;;
151;SDS011;68;48.792;9.164;2023-11-19T08:54:48;24.13;;;9.35;;
151;SDS011;68;48.792;9.164;2023-11-19T08:57:15;25.05;;;9.18;;
151;SDS011;68;48.792;9.164;2023-11-19T08:59:41;26.65;;;8.82;;
151;SDS011;68;48.792;9.164;2023-11-19T09:02:10;24.75;;;10.02;;
151;SDS011;68;48.792;9.164;2023-11-19T09:04:38;24.35;;;9.45;;
151;SDS011;68;48.792;9.164;2023-11-19T09:07:05;27.02;;;9.80;;
151;SDS011;68;48.792;9.164;2023-11-19T09:09:34;23.65;;;8.77;;
151;SDS011;68;48.792;9.164;2023-11-19T09:12:01;24.60;;;7.68;;
151;SDS011;68;48.792;9.164;2023-11-19T09:14:29;26.90;;;8.60;;
151;SDS011;68;48.792;9.164;2023-11-19T09:16:56;23.98;;;8.45;;
151;SDS011;68;48.792;9.164;2023-11-19T09:19:23;25.25;;;8.30;;
151;SDS011;68;48.792;9.164;2023-11-19T09:21:51;22.33;;;6.97;;
151;SDS011;68;48.792;9.164;2023-11-19T09:24:18;22.38;;;7.30;;
151;SDS011;68;48.792;9.164;2023-11-19T09:26:44;23.65;;;7.45;;
151;SDS011;68;48.792;9.164;2023-11-19T09:29:11;23.48;;;7.10;;
151;SDS011;68;48.792;9.164;2023-11-19T09:31:39;23.13;;;7.53;;
151;SDS011;68;48.792;9.164;2023-11-19T09:34:06;22.80;;;7.32;;
151;SDS011;68;48.792;9.164;2023-11-19T09:36:33;24.70;;;6.85;;
151;SDS011;68;48.792;9.164;2023-11-19T09:39:01;26.33;;;8.82;;
151;SDS011;68;48.792;9.164;2023-11-19T09:41:29;25.70;;;8.27;;
151;SDS011;68;48.792;9.164;2023-11-19T09:43:57;25.17;;;7.43;;
151;SDS011;68;48.792;9.164;2023-11-19T09:46:24;24.73;;;6.90;;
151;SDS011;68;48.792;9.164;2023-11-19T09:48:52;27.30;;;9.18;;
151;SDS011;68;48.792;9.164;2023-11-19T09:51:20;23.77;;;6.55;;
151;SDS011;68;48.792;9.164;2023-11-19T09:53:46;23.00;;;7.35;;
151;SDS011;68;48.792;9.164;2023-11-19T09:56:14;23.75;;;6.45;;
151;SDS011;68;48.792;9.164;2023-11-19T09:58:41;25.65;;;6.45;;
151;SDS011;68;48.792;9.164;2023-11-19T10:01:08;23.77;;;6.07;;
151;SDS011;68;48.792;9.164;2023-11-19T10:03:37;23.35;;;5.13;;
151;SDS011;68;48.792;9.164;2023-11-19T10:06:06;22.95;;;6.28;;
151;SDS011;68;48.792;9.164;2023-11-19T10:08:33;23.52;;;6.75;;
151;SDS011;68;48.792;9.164;2023-11-19T10:11:04;23.25;;;5.80;;
151;SDS011;68;48.792;9.164;2023-11-19T10:13:32;22.50;;;5.25;;
151;SDS011;68;48.792;9.164;2023-11-19T10:16:03;22.30;;;5.72;;
151;SDS011;68;48.792;9.164;2023-11-19T10:18:33;22.90;;;6.25;;
151;SDS011;68;48.792;9.164;2023-11-19T10:21:03;23.55;;;6.15;;
151;SDS011;68;48.792;9.164;2023-11-19T10:23:31;22.40;;;6.00;;
151;SDS011;68;48.792;9.164;2023-11-19T10:26:14;22.15;;;5.65;;
151;SDS011;68;48.792;9.164;2023-11-19T10:28:43;22.83;;;5.68;;
151;SDS011;68;48.792;9.164;2023-11-19T10:31:11;23.25;;;5.55;;
151;SDS011;68;48.792;9.164;2023-11-19T10:33:38;22.90;;;6.60;;
151;SDS011;68;48.792;9.164;2023-11-19T10:36:05;24.05;;;5.13;;
151;SDS011;68;48.792;9.164;2023-11-19T10:38:32;25.30;;;6.95;;
151;SDS011;68;48.792;9.164;2023-11-19T10:41:00;22.55;;;5.70;;
151;SDS011;68;48.792;9.164;2023-11-19T10:43:26;23.02;;;5.68;;
151;SDS011;68;48.792;9.164;2023-11-19T10:45:55;23.67;;;5.13;;
151;SDS011;68;48.792;9.164;2023-11-19T10:48:34;21.92;;;4.63;;
151;SDS011;68;48.792;9.164;2023-11-19T10:51:01;22.92;;;4.80;;
151;SDS011;68;48.792;9.164;2023-11-19T10:53:32;22.42;;;5.10;;
151;SDS011;68;48.792;9.164;2023-11-19T10:56:02;28.88;;;5.15;;
151;SDS011;68;48.792;9.164;2023-11-19T10:58:33;22.00;;;5.15;;
151;SDS011;68;48.792;9.164;2023-11-19T11:01:07;26.08;;;4.90;;
151;SDS011;68;48.792;9.164;2023-11-19T11:03:38;23.30;;;5.30;;
151;SDS011;68;48.792;9.164;2023-11-19T11:06:06;22.63;;;4.80;;
151;SDS011;68;48.792;9.164;2023-11-19T11:08:34;23.88;;;5.40;;
151;SDS011;68;48.792;9.164;2023-11-19T11:11:04;23.95;;;4.88;;
151;SDS011;68;48.792;9.164;2023-11-19T11:13:32;23.45;;;5.63;;
151;SDS011;68;48.792;9.164;2023-11-19T11:16:00;24.35;;;5.45;;
151;SDS011;68;48.792;9.164;2023-11-19T11:18:30;24.20;;;5.60;;
151;SDS011;68;48.792;9.164;2023-11-19T11:20:59;25.40;;;5.80;;
151;SDS011;68;48.792;9.164;2023-11-19T11:23:36;23.52;;;4.55;;
151;SDS011;68;48.792;9.164;2023-11-19T11:26:23;23.33;;;4.82;;
151;SDS011;68;48.792;9.164;2023-11-19T11:29:16;23.20;;;5.88;;
151;SDS011;68;48.792;9.164;2023-11-19T11:31:52;21.70;;;4.68;;
151;SDS011;68;48.792;9.164;2023-11-19T11:34:32;24.08;;;5.10;;
151;SDS011;68;48.792;9.164;2023-11-19T11:37:10;21.35;;;4.95;;
151;SDS011;68;48.792;9.164;2023-11-19T11:39:45;23.27;;;4.70;;
151;SDS011;68;48.792;9.164;2023-11-19T11:42:30;22.73;;;4.75;;
151;SDS011;68;48.792;9.164;2023-11-19T11:44:58;25.13;;;5.85;;
151;SDS011;68;48.792;9.164;2023-11-19T11:50:29;25.10;;;5.72;;
151;SDS011;68;48.792;9.164;2023-11-19T11:55:52;24.60;;;4.55;;
151;SDS011;68;48.792;9.164;2023-11-19T12:01:10;25.00;;;4.80;;
151;SDS011;68;48.792;9.164;2023-11-19T12:03:45;22.77;;;5.35;;
151;SDS011;68;48.792;9.164;2023-11-19T12:06:13;22.80;;;5.13;;
151;SDS011;68;48.792;9.164;2023-11-19T12:08:39;22.10;;;4.85;;
151;SDS011;68;48.792;9.164;2023-11-19T12:11:07;22.90;;;5.07;;
151;SDS011;68;48.792;9.164;2023-11-19T12:13:47;23.95;;;4.85;;
151;SDS011;68;48.792;9.164;2023-11-19T12:16:19;26.20;;;5.55;;
151;SDS011;68;48.792;9.164;2023-11-19T12:18:46;22.98;;;5.60;;
151;SDS011;68;48.792;9.164;2023-11-19T12:21:28;21.90;;;4.35;;
151;SDS011;68;48.792;9.164;2023-11-19T12:23:55;22.00;;;4.88;;
151;SDS011;68;48.792;9.164;2023-11-19T12:26:35;22.27;;;4.65;;
151;SDS011;68;48.792;9.164;2023-11-19T12:29:03;23.50;;;4.88;;
151;SDS011;68;48.792;9.164;2023-11-19T12:31:31;21.90;;;4.57;;
151;SDS011;68;48.792;9.164;2023-11-19T12:34:09;23.85;;;4.20;;
151;SDS011;68;48.792;9.164;2023-11-19T12:36:39;23.80;;;5.05;;
151;SDS011;68;48.792;9.164;2023-11-19T12:39:07;24.15;;;4.97;;
151;SDS011;68;48.792;9.164;2023-11-19T12:41:50;23.88;;;5.18;;
151;SDS011;68;48.792;9.164;2023-11-19T12:44:17;23.58;;;5.93;;
151;SDS011;68;48.792;9.164;2023-11-19T12:46:44;22.48;;;5.20;;
151;SDS011;68;48.792;9.164;2023-11-19T12:49:11;23.65;;;5.55;;
151;SDS011;68;48.792;9.164;2023-11-19T12:51:40;23.60;;;5.32;;
151;SDS011;68;48.792;9.164;2023-11-19T12:54:06;22.00;;;5.15;;
151;SDS011;68;48.792;9.164;2023-11-19T12:56:33;24.13;;;5.70;;
151;SDS011;68;48.792;9.164;2023-11-19T12:59:09;24.58;;;5.75;;
151;SDS011;68;48.792;9.164;2023-11-19T13:01:37;25.73;;;6.18;;
151;SDS011;68;48.792;9.164;2023-11-19T13:04:15;25.45;;;6.35;;
151;SDS011;68;48.792;9.164;2023-11-19T13:06:45;25.42;;;5.55;;
151;SDS011;68;48.792;9.164;2023-11-19T13:09:21;31.98;;;5.93;;
151;SDS011;68;48.792;9.164;2023-11-19T13:11:48;22.27;;;5.43;;
151;SDS011;68;48.792;9.164;2023-11-19T13:14:15;23.45;;;6.03;;
151;SDS011;68;48.792;9.164;2023-11-19T13:16:42;23.30;;;6.22;;
151;SDS011;68;48.792;9.164;2023-11-19T13:19:10;23.83;;;5.70;;
151;SDS011;68;48.792;9.164;2023-11-19T13:21:37;24.17;;;7.03;;
151;SDS011;68;48.792;9.164;2023-11-19T13:24:06;26.90;;;7.70;;
151;SDS011;68;48.792;9.164;2023-11-19T13:26:33;23.80;;;5.70;;
151;SDS011;68;48.792;9.164;2023-11-19T13:29:00;23.50;;;6.32;;
151;SDS011;68;48.792;9.164;2023-11-19T13:31:27;24.65;;;7.07;;
151;SDS011;68;48.792;9.164;2023-11-19T13:33:54;24.95;;;7.47;;
151;SDS011;68;48.792;9.164;2023-11-19T13:36:21;26.02;;;6.35;;
151;SDS011;68;48.792;9.164;2023-11-19T13:38:48;24.38;;;7.28;;
151;SDS011;68;48.792;9.164;2023-11-19T13:41:16;24.95;;;7.13;;
151;SDS011;68;48.792;9.164;2023-11-19T13:43:43;26.98;;;6.97;;
151;SDS011;68;48.792;9.164;2023-11-19T13:46:10;27.13;;;7.63;;
151;SDS011;68;48.792;9.164;2023-11-19T13:48:37;22.40;;;5.60;;
151;SDS011;68;48.792;9.164;2023-11-19T13:51:04;24.17;;;7.22;;
151;SDS011;68;48.792;9.164;2023-11-19T13:53:31;25.27;;;8.05;;
151;SDS011;68;48.792;9.164;2023-11-19T13:55:58;23.90;;;6.20;;
151;SDS011;68;48.792;9.164;2023-11-19T13:58:26;25.13;;;8.20;;
151;SDS011;68;48.792;9.164;2023-11-19T14:00:53;23.77;;;6.50;;
151;SDS011;68;48.792;9.164;2023-11-19T14:03:19;25.55;;;7.60;;
151;SDS011;68;48.792;9.164;2023-11-19T14:05:46;25.73;;;7.78;;
151;SDS011;68;48.792;9.164;2023-11-19T14:08:17;25.17;;;7.88;;
151;SDS011;68;48.792;9.164;2023-11-19T14:10:44;28.80;;;7.88;;
151;SDS011;68;48.792;9.164;2023-11-19T14:13:10;26.80;;;7.70;;
151;SDS011;68;48.792;9.164;2023-11-19T14:15:39;25.48;;;8.02;;
151;SDS011;68;48.792;9.164;2023-11-19T14:18:06;26.77;;;6.20;;
151;SDS011;68;48.792;9.164;2023-11-19T14:20:33;26.40;;;7.65;;
151;SDS011;68;48.792;9.164;2023-11-19T14:23:01;26.85;;;5.57;;
151;SDS011;68;48.792;9.164;2023-11-19T14:25:28;25.42;;;7.15;;
151;SDS011;68;48.792;9.164;2023-11-19T14:27:54;25.65;;;8.32;;
151;SDS011;68;48.792;9.164;2023-11-19T14:30:21;29.20;;;7.63;;
151;SDS011;68;48.792;9.164;2023-11-19T14:32:49;25.00;;;7.50;;
151;SDS011;68;48.792;9.164;2023-11-19T14:35:16;26.85;;;8.57;;
151;SDS011;68;48.792;9.164;2023-11-19T14:37:43;25.90;;;8.05;;
151;SDS011;68;48.792;9.164;2023-11-19T14:40:10;24.80;;;7.43;;
151;SDS011;68;48.792;9.164;2023-11-19T14:42:37;26.15;;;7.50;;
151;SDS011;68;48.792;9.164;2023-11-19T14:45:05;24.27;;;7.88;;
151;SDS011;68;48.792;9.164;2023-11-19T14:47:33;25.75;;;9.23;;
151;SDS011;68;48.792;9.164;2023-11-19T14:50:01;24.98;;;8.32;;
151;SDS011;68;48.792;9.164;2023-11-19T14:52:28;27.98;;;8.45;;
151;SDS011;68;48.792;9.164;2023-11-19T14:54:55;23.88;;;8.13;;
151;SDS011;68;48.792;9.164;2023-11-19T14:57:21;24.67;;;9.07;;
151;SDS011;68;48.792;9.164;2023-11-19T14:59:48;27.98;;;9.00;;
151;SDS011;68;48.792;9.164;2023-11-19T15:02:15;25.08;;;8.88;;
151;SDS011;68;48.792;9.164;2023-11-19T15:04:42;25.45;;;8.02;;
151;SDS011;68;48.792;9.164;2023-11-19T15:07:10;25.30;;;8.55;;
151;SDS011;68;48.792;9.164;2023-11-19T15:09:37;25.90;;;9.77;;
151;SDS011;68;48.792;9.164;2023-11-19T15:12:04;25.25;;;8.20;;
151;SDS011;68;48.792;9.164;2023-11-19T15:14:30;24.75;;;7.85;;
151;SDS011;68;48.792;9.164;2023-11-19T15:16:57;24.30;;;8.45;;
151;SDS011;68;48.792;9.164;2023-11-19T15:19:24;26.65;;;8.38;;
151;SDS011;68;48.792;9.164;2023-11-19T15:21:51;25.85;;;8.55;;
151;SDS011;68;48.792;9.164;2023-11-19T15:24:21;26.55;;;8.90;;
151;SDS011;68;48.792;9.164;2023-11-19T15:26:48;24.90;;;8.30;;
151;SDS011;68;48.792;9.164;2023-11-19T15:29:14;23.85;;;7.88;;
151;SDS011;68;48.792;9.164;2023-11-19T15:31:41;25.92;;;8.57;;
151;SDS011;68;48.792;9.164;2023-11-19T15:34:08;28.52;;;9.02;;
151;SDS011;68;48.792;9.164;2023-11-19T15:36:35;25.45;;;7.18;;
151;SDS011;68;48.792;9.164;2023-11-19T15:39:03;28.50;;;7.45;;
151;SDS011;68;48.792;9.164;2023-11-19T15:41:31;24.75;;;8.38;;
151;SDS011;68;48.792;9.164;2023-11-19T15:44:00;26.52;;;9.27;;
151;SDS011;68;48.792;9.164;2023-11-19T15:46:28;25.52;;;9.38;;
151;SDS011;68;48.792;9.164;2023-11-19T15:48:55;24.70;;;9.13;;
151;SDS011;68;48.792;9.164;2023-11-19T15:51:22;28.42;;;9.93;;